Flight Track Log - Related Links

Times and Time Zones

All times are in EDT time to prevent confusion due to time zone crossing. See the N1809M flight status page for this flight to view local times or setup timezone preferences in your user account.

Time Position Orientation Groundspeed Altitude Reporting Facility
EDT Latitude Longitude Course Direction KTS MPH feet Rate Location/Type
Sat 09:29:00 AM 35.4279 -79.5835 309° West  Level FlightAware Approximate
Sat 09:30:00 AM 35.4558 -79.6225 321° Northwest  Level FlightAware Approximate
Sat 09:31:00 AM 35.4885 -79.6556 320° Northwest  Level FlightAware Approximate
Sat 09:32:00 AM 35.5212 -79.6889 320° Northwest  Level FlightAware Approximate
Sat 09:33:00 AM 35.5538 -79.7221 320° Northwest  Level FlightAware Approximate
Sat 09:34:00 AM 35.5864 -79.7554 320° Northwest  Level FlightAware Approximate
Sat 09:35:00 AM 35.6190 -79.7887 320° Northwest  Level FlightAware Approximate
Sat 09:36:00 AM 35.6516 -79.8221 320° Northwest  Level FlightAware Approximate
Sat 09:37:00 AM 35.6842 -79.8555 320° Northwest  Level FlightAware Approximate
Sat 09:38:00 AM 35.7168 -79.8889 320° Northwest  Level FlightAware Approximate
Sat 09:39:00 AM 35.7493 -79.9223 320° Northwest  Level FlightAware Approximate
Sat 09:40:00 AM 35.7819 -79.9558 320° Northwest  Level FlightAware Approximate
Sat 09:41:00 AM 35.8144 -79.9893 320° Northwest  Level FlightAware Approximate
Sat 09:42:00 AM 35.8470 -80.0228 320° Northwest  Level FlightAware Approximate
Sat 09:43:00 AM 35.8795 -80.0564 320° Northwest  Level FlightAware Approximate
Sat 09:44:00 AM 35.9120 -80.0900 320° Northwest  Level FlightAware Approximate
Sat 09:45:00 AM 35.9445 -80.1236 320° Northwest  Level FlightAware Approximate
Sat 09:46:00 AM 35.9770 -80.1572 320° Northwest  Level FlightAware Approximate
Sat 09:47:00 AM 36.0095 -80.1908 320° Northwest  Level FlightAware Approximate
Sat 09:48:00 AM 36.0420 -80.2245 320° Northwest  Level FlightAware Approximate
Sat 09:49:00 AM 36.0745 -80.2582 320° Northwest  Level FlightAware Approximate
Sat 09:50:00 AM 36.1069 -80.2920 320° Northwest  Level FlightAware Approximate
Sat 09:51:00 AM 36.1394 -80.3258 320° Northwest  Level FlightAware Approximate
Sat 09:52:00 AM 36.1718 -80.3596 320° Northwest  Level FlightAware Approximate
Sat 09:53:00 AM 36.2043 -80.3934 320° Northwest  Level FlightAware Approximate
Sat 09:54:00 AM 36.2367 -80.4272 320° Northwest  Level FlightAware Approximate
Sat 09:55:00 AM 36.2691 -80.4611 320° Northwest  Level FlightAware Approximate
Sat 09:56:00 AM 36.3015 -80.4950 320° Northwest  Level FlightAware Approximate
Sat 09:57:00 AM 36.3339 -80.5290 320° Northwest  Level FlightAware Approximate
Sat 09:58:00 AM 36.3663 -80.5629 320° Northwest  Level FlightAware Approximate
Sat 09:58:32 AM 36.2103 -80.3794 318° Northwest 140 161 8,000  Level Atlanta Center
Sat 09:59:00 AM 36.3987 -80.5969 320° Northwest  Level FlightAware Approximate
Sat 09:59:32 AM 36.2403 -80.4089 322° Northwest 135 155 8,000  Level Atlanta Center
Sat 10:00:00 AM 36.4311 -80.6310 320° Northwest  Level FlightAware Approximate
Sat 10:00:32 AM 36.2619 -80.4364 314° West 134 154 8,000  Level Atlanta Center
Sat 10:01:00 AM 36.4625 -80.6663 318° Northwest  Level FlightAware Approximate
Sat 10:01:32 AM 36.2900 -80.4661 320° Northwest 139 160 8,000  Level Atlanta Center
Sat 10:02:00 AM 36.4939 -80.7017 318° Northwest  Level FlightAware Approximate
Sat 10:02:32 AM 36.3203 -80.5033 315° West 139 160 8,000  Level Atlanta Center
Sat 10:03:00 AM 36.5253 -80.7372 318° Northwest  Level FlightAware Approximate
Sat 10:03:32 AM 36.3458 -80.5281 322° Northwest 139 160 8,000  Level Atlanta Center
Sat 10:04:32 AM 36.3783 -80.5625 320° Northwest 139 160 8,000  Level Atlanta Center
Sat 10:05:32 AM 36.4019 -80.5900 317° Northwest 134 154 8,000  Level Atlanta Center
Sat 10:06:32 AM 36.4342 -80.6222 321° Northwest 134 154 8,000  Level Atlanta Center
Sat 10:07:32 AM 36.4619 -80.6519 319° Northwest 134 154 8,000  Level Atlanta Center
Sat 10:08:32 AM 36.4922 -80.6842 319° Northwest 134 154 8,000  Level Atlanta Center
Sat 10:09:32 AM 36.5200 -80.7167 317° Northwest 134 154 8,000  Level Atlanta Center
Sat 10:10:32 AM 36.5500 -80.7439 324° Northwest 134 154 8,000  Level Atlanta Center
Sat 10:11:32 AM 36.5781 -80.7789 315° West 134 154 8,000  Level Atlanta Center
Sat 10:12:32 AM 36.6058 -80.8061 322° Northwest 144 166 8,000  Level Atlanta Center
Sat 10:13:32 AM 36.6358 -80.8386 319° Northwest 144 166 8,000  Level Atlanta Center
Sat 10:14:32 AM 36.6639 -80.8736 315° West 150 173 8,000  Level Atlanta Center
Sat 10:15:32 AM 36.6961 -80.9036 323° Northwest 141 162 8,000  Level Atlanta Center
Sat 10:16:32 AM 36.7239 -80.9361 317° Northwest 141 162 8,000  Level Atlanta Center
Sat 10:17:32 AM 36.7539 -80.9686 319° Northwest 146 168 8,000  Level Atlanta Center
Sat 10:18:32 AM 36.7819 -81.0011 317° Northwest 146 168 8,000  Level Atlanta Center
Sat 10:19:32 AM 36.8097 -81.0339 317° Northwest 146 168 8,000  Level Atlanta Center
Sat 10:20:32 AM 36.8397 -81.0639 321° Northwest 146 168 8,000  Level Atlanta Center
Sat 10:21:32 AM 36.8697 -81.0964 319° Northwest 146 168 8,000  Level Atlanta Center
Sat 10:22:32 AM 36.8975 -81.1267 319° Northwest 146 168 8,000  Level Atlanta Center
Sat 10:23:32 AM 36.9256 -81.1619 315° West 146 168 8,000  Level Atlanta Center
Sat 10:24:32 AM 36.9553 -81.1944 319° Northwest 146 168 8,000  Level Atlanta Center
Sat 10:25:32 AM 36.9853 -81.2272 319° Northwest 141 162 8,000  Level Atlanta Center
Sat 10:26:32 AM 37.0217 -81.2675 319° Northwest 146 168 8,000 29 Level Atlanta Center
Sat 10:28:59 AM 37.1003 -81.3483 321° Northwest 149 171 8,100 29 Climbing Indianapolis Center
Sat 10:30:00 AM 37.1314 -81.3831 318° Northwest 149 171 8,100  Level Indianapolis Center
Sat 10:31:02 AM 37.1633 -81.4169 320° Northwest 150 173 8,100  Level Indianapolis Center
Sat 10:32:04 AM 37.1953 -81.4525 318° Northwest 152 175 8,100  Level Indianapolis Center
Sat 10:33:05 AM 37.2272 -81.4875 319° Northwest 154 177 8,100  Level Indianapolis Center
Sat 10:34:07 AM 37.2578 -81.5225 318° Northwest 150 173 8,100  Level Indianapolis Center
Sat 10:35:09 AM 37.2944 -81.5625 319° Northwest 150 173 8,100  Level Indianapolis Center
Sat 10:36:10 AM 37.3264 -81.5989 318° Northwest 154 177 8,100  Level Indianapolis Center
Sat 10:37:12 AM 37.3575 -81.6322 320° Northwest 148 170 8,100  Level Indianapolis Center
Sat 10:38:14 AM 37.3892 -81.6669 319° Northwest 150 173 8,100  Level Indianapolis Center
Sat 10:39:15 AM 37.4200 -81.7033 317° Northwest 150 173 8,100  Level Indianapolis Center
Sat 10:40:17 AM 37.4525 -81.7378 320° Northwest 153 176 8,100  Level Indianapolis Center
Sat 10:41:19 AM 37.4817 -81.7719 317° Northwest 146 168 8,100  Level Indianapolis Center
Sat 10:42:20 AM 37.5189 -81.8128 319° Northwest 149 171 8,100  Level Indianapolis Center
Sat 10:43:22 AM 37.5494 -81.8483 317° Northwest 149 171 8,100  Level Indianapolis Center
Sat 10:44:23 AM 37.5800 -81.8831 318° Northwest 148 170 8,100  Level Indianapolis Center
Sat 10:45:25 AM 37.6122 -81.9175 320° Northwest 151 174 8,100  Level Indianapolis Center
Sat 10:46:27 AM 37.6425 -81.9528 317° Northwest 148 170 8,100  Level Indianapolis Center
Sat 10:47:28 AM 37.6728 -81.9872 318° Northwest 147 169 8,100  Level Indianapolis Center
Sat 10:48:30 AM 37.7083 -82.0272 318° Northwest 147 169 8,100  Level Indianapolis Center
Sat 10:49:32 AM 37.7397 -82.0628 318° Northwest 149 171 8,100  Level Indianapolis Center
Sat 10:50:33 AM 37.7700 -82.0981 317° Northwest 149 171 8,100  Level Indianapolis Center
Sat 10:51:35 AM 37.7992 -82.1311 318° Northwest 143 165 8,100 -48 Level Indianapolis Center
Sat 10:52:37 AM 37.8303 -82.1667 318° Northwest 147 169 8,000 -48 Descending Indianapolis Center
Sat 10:53:39 AM 37.8617 -82.2006 320° Northwest 148 170 8,000  Level Indianapolis Center
Sat 10:54:40 AM 37.8911 -82.2342 318° Northwest 146 168 8,000  Level Indianapolis Center
Sat 10:55:42 AM 37.9264 -82.2747 318° Northwest 146 168 8,000  Level Indianapolis Center
Sat 10:56:44 AM 37.9572 -82.3089 319° Northwest 146 168 8,000  Level Indianapolis Center
Sat 10:57:45 AM 37.9872 -82.3442 317° Northwest 147 169 8,000  Level Indianapolis Center
Sat 10:58:47 AM 38.0167 -82.3781 318° Northwest 145 167 8,000  Level Indianapolis Center
Sat 10:59:49 AM 38.0481 -82.4131 319° Northwest 147 169 8,000  Level Indianapolis Center
Sat 11:00:51 AM 38.0792 -82.4492 318° Northwest 149 171 8,000  Level Indianapolis Center
Sat 11:01:52 AM 38.1142 -82.4883 319° Northwest 150 173 8,000  Level Indianapolis Center
Sat 11:02:54 AM 38.1456 -82.5253 317° Northwest 149 171 8,000  Level Indianapolis Center
Sat 11:03:56 AM 38.1767 -82.5594 319° Northwest 147 169 8,000  Level Indianapolis Center
Sat 11:04:58 AM 38.2061 -82.5956 316° Northwest 147 169 8,000  Level Indianapolis Center
Sat 11:05:59 AM 38.2378 -82.6297 320° Northwest 150 173 8,000  Level Indianapolis Center
Sat 11:07:01 AM 38.2672 -82.6647 317° Northwest 146 168 8,000  Level Indianapolis Center
Sat 11:08:03 AM 38.3028 -82.7069 317° Northwest 148 170 8,000  Level Indianapolis Center
Sat 11:09:05 AM 38.3333 -82.7417 318° Northwest 148 170 8,000  Level Indianapolis Center
Sat 11:10:06 AM 38.3639 -82.7772 318° Northwest 148 170 8,000  Level Indianapolis Center
Sat 11:11:08 AM 38.3950 -82.8131 318° Northwest 151 174 8,000  Level Indianapolis Center
Sat 11:12:10 AM 38.4250 -82.8478 318° Northwest 148 170 8,000  Level Indianapolis Center
Sat 11:13:12 AM 38.4561 -82.8844 317° Northwest 151 174 8,000  Level Indianapolis Center
Sat 11:14:13 AM 38.4872 -82.9200 318° Northwest 151 174 8,000  Level Indianapolis Center
Sat 11:15:15 AM 38.5225 -82.9614 317° Northwest 148 170 8,000  Level Indianapolis Center
Sat 11:16:17 AM 38.5525 -82.9978 317° Northwest 149 171 8,000  Level Indianapolis Center
Sat 11:17:19 AM 38.5833 -83.0350 317° Northwest 151 174 8,000  Level Indianapolis Center
Sat 11:18:21 AM 38.6150 -83.0689 320° Northwest 149 171 8,000  Level Indianapolis Center
Sat 11:19:22 AM 38.6469 -83.1067 317° Northwest 151 174 8,000  Level Indianapolis Center
Sat 11:20:24 AM 38.6783 -83.1433 318° Northwest 153 176 8,000 -48 Level Indianapolis Center
Sat 11:21:26 AM 38.7122 -83.1844 317° Northwest 150 173 7,900 -244 Descending Indianapolis Center
Sat 11:22:27 AM 38.7464 -83.2219 319° Northwest 157 181 7,500 -439 Descending Indianapolis Center
Sat 11:23:29 AM 38.7800 -83.2611 318° Northwest 162 186 7,000 -435 Descending Indianapolis Center
Sat 11:24:31 AM 38.8089 -83.2994 314° West 151 174 6,600 -435 Descending Indianapolis Center
Sat 11:25:33 AM 38.8406 -83.3336 320° Northwest 147 169 6,100 -439 Descending Indianapolis Center
Sat 11:26:34 AM 38.8714 -83.3717 316° Northwest 150 173 5,700 -439 Descending Indianapolis Center
Sat 11:27:36 AM 38.9044 -83.4100 318° Northwest 156 180 5,200 -484 Descending Indianapolis Center
Sat 11:28:38 AM 38.9364 -83.4489 317° Northwest 156 180 4,700 -488 Descending Indianapolis Center
Sat 11:29:39 AM 38.9700 -83.4894 317° Northwest 162 186 4,200 -341 Descending Indianapolis Center
Sat 11:30:41 AM 38.9975 -83.5289 312° West 152 175 4,000 -97 Descending Indianapolis Center
Sat 11:31:43 AM 39.0231 -83.5828 301° West 150 173 4,000  Level Indianapolis Center
Sat 11:32:45 AM 39.0611 -83.6011 339° North 146 168 4,000  Level Indianapolis Center
Sat 11:33:46 AM 39.0967 -83.6264 331° Northwest 144 166 4,000  Level Indianapolis Center
Sat 11:34:16 AM 39.1128 -83.6458 317° Northwest 143 165 4,000  Level Indianapolis Center
Sat 11:34:48 AM 39.1250 -83.6644 310° West 142 163 4,000  Level Indianapolis Center
Sat 11:35:10 AM 39.1350 -83.6836 304° West 144 166 4,000  Level Indianapolis Center
Sat 11:35:50 AM 39.1469 -83.7078 303° West 142 163 4,000  Level Indianapolis Center
Sat 11:36:12 AM 39.1572 -83.7242 309° West 141 162 4,000  Level Indianapolis Center
Sat 11:36:51 AM 39.1714 -83.7492 306° West 143 165 4,000  Level Indianapolis Center
Sat 11:37:12 AM 39.1836 -83.7622 320° Northwest 144 166 4,000  Level Indianapolis Center
Sat 11:37:53 AM 39.2042 -83.7803 326° Northwest 145 167 4,000  Level Indianapolis Center
Sat 11:38:13 AM 39.2169 -83.7908 327° Northwest 144 166 4,000  Level Indianapolis Center
Sat 11:38:55 AM 39.2381 -83.8094 326° Northwest 144 166 4,000  Level Indianapolis Center
Sat 11:39:14 AM 39.2522 -83.8222 325° Northwest 144 166 4,000  Level Indianapolis Center
Sat 11:39:56 AM 39.2714 -83.8397 325° Northwest 144 166 4,000  Level Indianapolis Center
Sat 11:40:21 AM 39.2894 -83.8564 324° Northwest 148 170 4,000  Level Indianapolis Center
Sat 11:40:58 AM 39.3050 -83.8725 321° Northwest 147 169 4,000 -295 Level Indianapolis Center
Sat 11:41:22 AM 39.3228 -83.8878 326° Northwest 153 176 3,700 -581 Descending Indianapolis Center
Sat 11:42:00 AM 39.3447 -83.9153 316° Northwest 153 176 3,400 -492 Descending Indianapolis Center
Sat 11:42:23 AM 39.3569 -83.9353 308° West 170 196 3,200 -295 Descending Indianapolis Center
Sat 11:43:01 AM 39.3733 -83.9639 307° West 162 186 3,100 -98 Descending Indianapolis Center
Sat 11:43:24 AM 39.3833 -83.9736 323° Northwest 148 170 3,100  Level Indianapolis Center
Sat 11:44:04 AM 39.4031 -83.9939 322° Northwest 148 170 3,100  Level Indianapolis Center
Sat 11:44:25 AM 39.4142 -84.0072 317° Northwest 137 158 3,100  Level Indianapolis Center
Sat 11:45:04 AM 39.4342 -84.0267 323° Northwest 142 163 3,100  Level Indianapolis Center
Sat 11:45:26 AM 39.4450 -84.0411 314° West 145 167 3,100  Level Indianapolis Center
Sat 11:46:06 AM 39.4647 -84.0603 323° Northwest 142 163 3,100  Level Indianapolis Center
Sat 11:46:27 AM 39.4742 -84.0692 324° Northwest 138 159 3,100  Level Indianapolis Center
Sat 11:47:08 AM 39.4931 -84.0894 320° Northwest 137 158 3,100  Level Indianapolis Center
Sat 11:47:28 AM 39.5031 -84.1028 314° West 123 142 3,100  Level Indianapolis Center
Sat 11:48:09 AM 39.5192 -84.1189 322° Northwest 129 148 3,100  Level Indianapolis Center
Sat 11:50:00 AM 39.5660 -84.1903 310° West  Level FlightAware Approximate
Sat 11:57:00 AM 39.5833 -84.2167 318° Northwest  Level FlightAware Approximate
Sat 11:58:00 AM 39.5890 -84.2249 318° Northwest  Level Estimated

Login

Don't have an account? Register now (free) for customized features, flight alerts, and more!